createdAt,value
2018-11-14T00:01:39.765Z,54.40
2018-11-14T00:04:38.585Z,54.30
2018-11-14T00:07:31.967Z,54.30
2018-11-14T00:10:43.494Z,54.40
2018-11-14T00:13:37.500Z,54.50
2018-11-14T00:16:31.048Z,54.40
2018-11-14T00:19:24.650Z,54.50
2018-11-14T00:22:18.226Z,54.60
2018-11-14T00:25:12.007Z,54.50
2018-11-14T00:28:05.677Z,54.80
2018-11-14T00:31:02.866Z,54.70
2018-11-14T00:33:59.535Z,54.50
2018-11-14T00:36:53.710Z,54.20
2018-11-14T00:39:50.188Z,54.10
2018-11-14T00:42:44.193Z,54.10
2018-11-14T00:45:37.818Z,54.10
2018-11-14T00:48:31.700Z,54.10
2018-11-14T00:51:25.277Z,53.90
2018-11-14T00:54:18.873Z,53.80
2018-11-14T00:57:12.698Z,53.90
2018-11-14T01:00:06.982Z,53.90
2018-11-14T01:03:03.798Z,54.10
2018-11-14T01:05:57.718Z,54.20
2018-11-14T01:08:51.314Z,54.20
2018-11-14T01:11:45.168Z,54.30
2018-11-14T01:14:38.724Z,54.40
2018-11-14T01:17:32.714Z,54.30
2018-11-14T01:20:26.310Z,54.30
2018-11-14T01:23:19.968Z,54.40
2018-11-14T01:26:14.139Z,54.30
2018-11-14T01:29:11.052Z,54.10
2018-11-14T01:32:02.211Z,54.30
2018-11-14T01:34:56.183Z,54.00
2018-11-14T01:37:50.128Z,53.80
2018-11-14T01:40:44.209Z,53.90
2018-11-14T01:43:39.660Z,54.00
2018-11-14T01:46:33.500Z,54.00
2018-11-14T01:49:27.352Z,54.10
2018-11-14T01:52:21.259Z,54.20
2018-11-14T01:55:19.621Z,54.40
2018-11-14T01:58:13.021Z,54.40
2018-11-14T02:01:06.466Z,54.20
2018-11-14T02:04:03.478Z,54.20
2018-11-14T02:06:57.014Z,54.20
2018-11-14T02:09:50.729Z,54.30
2018-11-14T02:12:45.073Z,54.70
2018-11-14T02:15:39.284Z,54.90
2018-11-14T02:18:32.565Z,54.50
2018-11-14T02:21:26.713Z,54.70
2018-11-14T02:24:23.790Z,54.90
2018-11-14T02:27:19.644Z,54.70
2018-11-14T02:30:15.409Z,54.90
2018-11-14T02:33:18.518Z,54.70
2018-11-14T02:36:12.260Z,54.40
2018-11-14T02:39:06.312Z,54.50
2018-11-14T02:42:00.391Z,54.60
2018-11-14T02:44:54.292Z,54.80
2018-11-14T02:47:47.562Z,54.70
2018-11-14T02:50:41.278Z,54.70
2018-11-14T02:53:35.617Z,55.00
2018-11-14T02:56:29.632Z,55.00
2018-11-14T02:59:23.415Z,54.70
2018-11-14T03:02:17.296Z,54.60
2018-11-14T03:05:12.531Z,54.40
2018-11-14T03:08:06.250Z,54.70
2018-11-14T03:10:59.717Z,54.00
2018-11-14T03:13:53.813Z,54.30
2018-11-14T03:16:47.776Z,54.30
2018-11-14T03:19:42.040Z,53.70
2018-11-14T03:22:35.518Z,53.50
2018-11-14T03:25:32.571Z,53.50
2018-11-14T03:28:27.412Z,53.50
2018-11-14T03:31:21.472Z,54.20
2018-11-14T03:34:15.561Z,54.30
2018-11-14T03:37:10.130Z,54.40
2018-11-14T03:40:04.551Z,54.30
2018-11-14T03:42:58.972Z,54.60
2018-11-14T03:45:53.047Z,54.40
2018-11-14T03:48:49.780Z,54.10
2018-11-14T03:51:43.716Z,53.70
2018-11-14T03:54:37.757Z,54.10
2018-11-14T03:57:31.802Z,53.60
2018-11-14T04:00:26.134Z,53.40
2018-11-14T04:03:20.885Z,53.60
2018-11-14T04:06:14.610Z,53.70
2018-11-14T04:09:11.137Z,54.00
2018-11-14T04:12:05.517Z,54.80
2018-11-14T04:14:59.643Z,53.50
2018-11-14T04:17:54.119Z,53.40
2018-11-14T04:20:48.388Z,53.50
2018-11-14T04:23:54.120Z,53.20
2018-11-14T04:26:47.594Z,52.80
2018-11-14T04:29:41.505Z,53.20
2018-11-14T04:32:35.236Z,53.60
2018-11-14T04:35:32.081Z,53.20
2018-11-14T04:38:25.707Z,53.70
2018-11-14T04:41:19.186Z,53.80
2018-11-14T04:44:13.708Z,54.20
2018-11-14T04:47:07.550Z,54.00
2018-11-14T04:50:09.726Z,53.80
2018-11-14T04:53:10.661Z,54.10
2018-11-14T04:56:17.111Z,54.70
2018-11-14T04:59:16.613Z,55.00
2018-11-14T05:02:17.276Z,55.20
2018-11-14T05:05:15.517Z,55.40
2018-11-14T05:08:17.271Z,56.20
2018-11-14T05:11:21.606Z,56.40
2018-11-14T05:14:22.031Z,56.50
2018-11-14T05:17:17.676Z,56.50
2018-11-14T05:20:15.071Z,56.20
2018-11-14T05:23:13.736Z,56.00
2018-11-14T05:26:18.754Z,55.90
2018-11-14T05:29:21.675Z,56.00
2018-11-14T05:32:13.779Z,55.70
2018-11-14T05:35:26.980Z,55.80
2018-11-14T05:38:22.593Z,55.70
2018-11-14T05:41:18.132Z,55.40
2018-11-14T05:44:13.836Z,55.60
2018-11-14T05:47:14.615Z,55.80
2018-11-14T05:50:11.356Z,56.10
2018-11-14T05:53:06.455Z,56.20
2018-11-14T05:56:02.686Z,56.20
2018-11-14T05:59:01.935Z,56.50
2018-11-14T06:01:57.424Z,56.60
2018-11-14T06:04:55.190Z,56.90
2018-11-14T06:07:52.112Z,56.80
2018-11-14T06:10:48.711Z,57.10
2018-11-14T06:13:45.673Z,57.30
2018-11-14T06:16:44.256Z,57.20
2018-11-14T06:19:40.623Z,57.00
2018-11-14T06:22:39.507Z,56.90
2018-11-14T06:25:37.402Z,56.70
2018-11-14T06:28:36.215Z,56.70
2018-11-14T06:31:32.155Z,56.90
2018-11-14T06:34:31.685Z,56.90
2018-11-14T06:37:30.733Z,57.00
2018-11-14T06:40:29.067Z,57.00
2018-11-14T06:43:23.114Z,57.00
2018-11-14T06:46:21.669Z,57.20
2018-11-14T06:49:18.156Z,57.40
2018-11-14T06:52:13.675Z,57.50
2018-11-14T06:55:08.986Z,57.60
2018-11-14T06:58:05.110Z,57.80
2018-11-14T07:01:06.953Z,57.90
2018-11-14T07:04:03.927Z,58.10
2018-11-14T07:07:00.579Z,58.00
2018-11-14T07:10:09.849Z,58.00
2018-11-14T07:13:19.267Z,58.00
2018-11-14T07:16:12.166Z,58.30
2018-11-14T07:19:08.742Z,58.30
2018-11-14T07:22:04.590Z,58.30
2018-11-14T07:25:01.857Z,58.40
2018-11-14T07:27:57.218Z,58.40
2018-11-14T07:30:56.650Z,58.40
2018-11-14T07:33:54.357Z,58.40
2018-11-14T07:36:49.974Z,58.60
2018-11-14T07:39:44.905Z,58.50
2018-11-14T07:42:44.090Z,58.50
2018-11-14T07:45:40.643Z,58.50
2018-11-14T07:48:35.684Z,58.50
2018-11-14T07:51:29.921Z,58.60
2018-11-14T07:54:24.862Z,58.60
2018-11-14T07:57:18.884Z,58.70
2018-11-14T08:00:18.452Z,58.80
2018-11-14T08:03:13.024Z,58.80
2018-11-14T08:06:08.207Z,58.90
2018-11-14T08:09:02.581Z,58.80
2018-11-14T08:12:00.353Z,58.80
2018-11-14T08:14:54.239Z,59.00
2018-11-14T08:17:50.640Z,59.00
2018-11-14T08:20:45.738Z,58.80
2018-11-14T08:23:41.886Z,58.60
2018-11-14T08:26:37.592Z,58.50
2018-11-14T08:29:32.710Z,58.40
2018-11-14T08:32:27.083Z,58.20
2018-11-14T08:35:21.997Z,58.00
2018-11-14T08:38:17.191Z,57.80
2018-11-14T08:41:11.988Z,57.50
2018-11-14T08:44:06.333Z,57.30
2018-11-14T08:47:03.522Z,57.10
2018-11-14T08:49:58.756Z,57.00
2018-11-14T08:53:05.517Z,56.80
2018-11-14T08:56:00.766Z,56.50
2018-11-14T08:59:00.161Z,56.40
2018-11-14T09:01:54.175Z,56.30
2018-11-14T09:04:48.789Z,55.80
2018-11-14T09:07:43.611Z,56.00
2018-11-14T09:10:37.580Z,55.90
2018-11-14T09:13:32.213Z,56.00
2018-11-14T09:16:27.679Z,56.00
2018-11-14T09:19:22.667Z,56.00
2018-11-14T09:22:18.481Z,56.10
2018-11-14T09:25:16.811Z,56.30
2018-11-14T09:28:13.736Z,56.70
2018-11-14T09:31:12.614Z,57.00
2018-11-14T09:34:10.678Z,57.10
2018-11-14T09:37:06.366Z,57.30
2018-11-14T09:40:02.223Z,57.50
2018-11-14T09:42:57.235Z,57.60
2018-11-14T09:45:55.361Z,57.70
2018-11-14T09:48:57.121Z,58.00
2018-11-14T09:51:54.824Z,58.20
2018-11-14T09:54:51.540Z,58.30
2018-11-14T09:57:48.334Z,58.40
2018-11-14T10:00:44.496Z,58.40
2018-11-14T10:03:47.041Z,58.50
2018-11-14T10:06:48.865Z,58.70
2018-11-14T10:09:44.582Z,58.70
2018-11-14T10:13:04.734Z,58.90
2018-11-14T10:15:56.212Z,58.90
2018-11-14T10:18:55.176Z,59.00
2018-11-14T10:21:50.683Z,58.90
2018-11-14T10:24:46.118Z,59.00
2018-11-14T10:27:42.771Z,59.00
2018-11-14T10:30:38.884Z,59.40
2018-11-14T10:33:36.096Z,58.70
2018-11-14T10:36:33.531Z,58.50
2018-11-14T10:39:30.381Z,58.10
2018-11-14T10:42:26.923Z,57.80
2018-11-14T10:45:26.387Z,57.60
2018-11-14T10:48:22.593Z,57.60
2018-11-14T10:51:17.706Z,57.60
2018-11-14T10:54:12.361Z,57.90
2018-11-14T10:57:10.118Z,58.20
2018-11-14T11:00:04.997Z,58.40
2018-11-14T11:03:18.898Z,58.60
2018-11-14T11:06:52.048Z,58.60
2018-11-14T11:10:07.579Z,58.80
2018-11-14T11:13:11.388Z,59.00
2018-11-14T11:16:24.657Z,59.00
2018-11-14T11:19:24.096Z,59.10
2018-11-14T11:22:20.866Z,59.30
2018-11-14T11:25:18.445Z,59.70
2018-11-14T11:28:15.300Z,59.90
2018-11-14T11:31:14.802Z,60.20
2018-11-14T11:34:26.877Z,60.40
2018-11-14T11:37:21.376Z,60.50
2018-11-14T11:40:18.686Z,60.90
2018-11-14T11:43:12.565Z,60.90
2018-11-14T11:46:09.052Z,60.90
2018-11-14T11:49:02.407Z,60.90
2018-11-14T11:52:00.868Z,60.90
2018-11-14T11:54:51.016Z,60.70
2018-11-14T11:57:47.114Z,60.80
2018-11-14T12:00:43.743Z,61.00
2018-11-14T12:03:40.744Z,61.00
2018-11-14T12:06:36.819Z,61.10
2018-11-14T12:09:30.663Z,61.60
2018-11-14T12:12:24.590Z,61.40
2018-11-14T12:15:20.074Z,61.50
2018-11-14T12:18:16.090Z,61.80
2018-11-14T12:21:17.362Z,61.90
2018-11-14T12:24:20.245Z,63.10
2018-11-14T12:27:18.180Z,62.40
2018-11-14T12:30:21.197Z,62.30
2018-11-14T12:33:17.102Z,62.20
2018-11-14T12:36:18.447Z,61.70
2018-11-14T12:39:14.159Z,61.30
2018-11-14T12:42:12.000Z,61.00
2018-11-14T12:45:08.718Z,60.80
2018-11-14T12:48:03.930Z,60.70
2018-11-14T12:50:59.151Z,60.80
2018-11-14T12:53:56.309Z,60.80
2018-11-14T12:56:51.882Z,61.00
2018-11-14T12:59:46.017Z,61.20
2018-11-14T13:02:40.059Z,61.50
2018-11-14T13:05:33.728Z,61.50
2018-11-14T13:08:28.895Z,61.90
2018-11-14T13:11:23.227Z,61.20
2018-11-14T13:14:17.756Z,60.90
2018-11-14T13:17:12.206Z,60.70
2018-11-14T13:20:06.221Z,60.60
2018-11-14T13:23:00.149Z,60.50
2018-11-14T13:25:54.891Z,60.50
2018-11-14T13:28:48.927Z,60.40
2018-11-14T13:31:42.744Z,60.40
2018-11-14T13:34:37.016Z,60.30
2018-11-14T13:37:31.062Z,60.20
2018-11-14T13:40:25.610Z,60.00
2018-11-14T13:43:19.641Z,60.00
2018-11-14T13:46:13.465Z,60.00
2018-11-14T13:49:08.046Z,59.90
2018-11-14T13:52:02.325Z,59.80
2018-11-14T13:54:56.684Z,59.80
2018-11-14T13:57:52.212Z,59.80
2018-11-14T14:00:46.466Z,59.70
2018-11-14T14:03:40.319Z,59.70
2018-11-14T14:06:34.771Z,59.70
2018-11-14T14:09:29.435Z,59.60
2018-11-14T14:12:23.515Z,59.60
2018-11-14T14:15:22.030Z,59.60
2018-11-14T14:18:16.581Z,59.50
2018-11-14T14:21:10.601Z,59.50
2018-11-14T14:24:05.658Z,59.40
2018-11-14T14:27:00.031Z,59.40
2018-11-14T14:29:54.443Z,59.40
2018-11-14T14:32:48.708Z,59.30
2018-11-14T14:35:42.929Z,59.20
2018-11-14T14:38:39.331Z,59.30
2018-11-14T14:41:33.410Z,59.30
2018-11-14T14:44:27.485Z,59.10
2018-11-14T14:47:21.785Z,59.10
2018-11-14T14:50:18.113Z,59.10
2018-11-14T14:53:13.296Z,59.00
2018-11-14T14:56:07.357Z,59.00
2018-11-14T14:59:01.660Z,59.00
2018-11-14T15:01:56.003Z,58.90
2018-11-14T15:04:49.945Z,58.90
2018-11-14T15:07:43.864Z,58.80
2018-11-14T15:10:39.260Z,58.90
2018-11-14T15:13:33.318Z,58.80
2018-11-14T15:16:27.559Z,58.70
2018-11-14T15:19:22.103Z,58.70
2018-11-14T15:22:16.107Z,58.60
2018-11-14T15:25:12.514Z,58.70
2018-11-14T15:28:06.017Z,58.60
2018-11-14T15:30:59.574Z,58.60
2018-11-14T15:33:53.073Z,58.50
2018-11-14T15:36:46.945Z,58.50
2018-11-14T15:39:40.577Z,58.50
2018-11-14T15:42:35.006Z,58.40
2018-11-14T15:45:33.028Z,58.30
2018-11-14T15:48:27.303Z,58.20
2018-11-14T15:51:20.638Z,58.20
2018-11-14T15:54:14.638Z,58.20
2018-11-14T15:57:08.439Z,58.20
2018-11-14T16:00:01.995Z,58.60
2018-11-14T16:02:55.509Z,58.00
2018-11-14T16:05:49.574Z,58.00
2018-11-14T16:08:43.303Z,58.00
2018-11-14T16:11:37.201Z,57.90
2018-11-14T16:14:30.957Z,58.00
2018-11-14T16:17:24.646Z,57.90
2018-11-14T16:20:19.977Z,57.80
2018-11-14T16:23:13.326Z,57.80
2018-11-14T16:26:07.187Z,57.80
2018-11-14T16:29:03.352Z,57.60
2018-11-14T16:31:56.676Z,57.50
2018-11-14T16:34:50.326Z,57.50
2018-11-14T16:37:44.589Z,57.50
2018-11-14T16:40:38.273Z,57.50
2018-11-14T16:43:32.298Z,57.50
2018-11-14T16:46:26.258Z,57.50
2018-11-14T16:49:19.756Z,57.40
2018-11-14T16:52:13.716Z,57.40
2018-11-14T16:55:07.459Z,57.50
2018-11-14T16:58:01.365Z,57.40
2018-11-14T17:00:55.222Z,57.40
2018-11-14T17:03:49.166Z,57.40
2018-11-14T17:06:42.980Z,57.40
2018-11-14T17:09:36.493Z,57.40
2018-11-14T17:12:30.437Z,57.40
2018-11-14T17:15:25.479Z,57.40
2018-11-14T17:18:22.478Z,57.40
2018-11-14T17:21:16.726Z,57.40
2018-11-14T17:24:16.089Z,58.10
2018-11-14T17:27:09.989Z,57.40
2018-11-14T17:30:03.596Z,57.40
2018-11-14T17:32:57.632Z,57.30
2018-11-14T17:35:52.049Z,57.40
2018-11-14T17:38:45.819Z,57.40
2018-11-14T17:41:40.031Z,57.40
2018-11-14T17:44:34.278Z,57.40
2018-11-14T17:47:28.311Z,57.40
2018-11-14T17:50:36.337Z,57.40
2018-11-14T17:53:30.400Z,57.40
2018-11-14T17:56:24.755Z,57.30
2018-11-14T17:59:18.791Z,57.20
2018-11-14T18:02:12.823Z,57.20
2018-11-14T18:05:07.255Z,57.20
2018-11-14T18:08:01.177Z,57.10
2018-11-14T18:10:56.134Z,57.20
2018-11-14T18:13:50.546Z,57.10
2018-11-14T18:16:44.795Z,57.10
2018-11-14T18:19:39.117Z,57.10
2018-11-14T18:22:33.217Z,57.10
2018-11-14T18:25:27.559Z,57.60
2018-11-14T18:28:21.546Z,56.90
2018-11-14T18:31:16.191Z,56.90
2018-11-14T18:34:10.286Z,56.80
2018-11-14T18:37:04.607Z,56.80
2018-11-14T18:39:59.082Z,56.70
2018-11-14T18:42:53.242Z,56.60
2018-11-14T18:45:47.354Z,56.60
2018-11-14T18:48:40.957Z,56.90
2018-11-14T18:51:37.647Z,56.70
2018-11-14T18:54:29.225Z,56.70
2018-11-14T18:57:23.388Z,56.70
2018-11-14T19:00:19.869Z,56.70
2018-11-14T19:03:13.885Z,56.70
2018-11-14T19:06:13.892Z,56.70
2018-11-14T19:09:09.452Z,56.70
2018-11-14T19:12:05.050Z,56.80
2018-11-14T19:14:59.077Z,56.70
2018-11-14T19:17:53.349Z,56.70
2018-11-14T19:20:47.409Z,56.70
2018-11-14T19:23:41.252Z,56.80
2018-11-14T19:26:35.591Z,56.70
2018-11-14T19:29:30.248Z,56.70
2018-11-14T19:32:24.310Z,56.70
2018-11-14T19:35:19.096Z,56.70
2018-11-14T19:38:12.957Z,56.70
2018-11-14T19:41:06.733Z,56.60
2018-11-14T19:44:00.189Z,56.60
2018-11-14T19:46:54.115Z,56.70
2018-11-14T19:49:47.910Z,56.50
2018-11-14T19:52:41.690Z,56.60
2018-11-14T19:55:36.381Z,56.60
2018-11-14T19:58:30.155Z,56.60
2018-11-14T20:01:24.145Z,56.60
2018-11-14T20:04:20.303Z,56.60
2018-11-14T20:07:13.974Z,56.60
2018-11-14T20:10:07.891Z,56.60
2018-11-14T20:13:01.760Z,56.60
2018-11-14T20:15:55.576Z,56.60
2018-11-14T20:18:50.251Z,56.70
2018-11-14T20:21:44.277Z,56.60
2018-11-14T20:24:37.763Z,56.60
2018-11-14T20:27:31.389Z,56.60
2018-11-14T20:30:35.200Z,56.50
2018-11-14T20:33:28.932Z,56.50
2018-11-14T20:36:22.616Z,56.50
2018-11-14T20:39:16.402Z,56.40
2018-11-14T20:42:10.748Z,56.40
2018-11-14T20:45:04.303Z,56.30
2018-11-14T20:47:57.883Z,56.30
2018-11-14T20:50:51.141Z,56.40
2018-11-14T20:53:45.124Z,57.10
2018-11-14T20:56:38.999Z,56.50
2018-11-14T20:59:32.646Z,56.50
2018-11-14T21:02:26.829Z,56.10
2018-11-14T21:05:20.436Z,56.60
2018-11-14T21:08:14.519Z,56.60
2018-11-14T21:11:08.884Z,56.60
2018-11-14T21:14:02.329Z,56.60
2018-11-14T21:16:57.479Z,56.50
2018-11-14T21:19:51.206Z,56.60
2018-11-14T21:22:45.064Z,56.50
2018-11-14T21:25:38.889Z,56.60
2018-11-14T21:28:32.956Z,56.60
2018-11-14T21:31:26.462Z,56.80
2018-11-14T21:34:20.027Z,56.70
2018-11-14T21:37:17.273Z,56.60
2018-11-14T21:40:07.785Z,56.60
2018-11-14T21:43:01.606Z,56.60
2018-11-14T21:45:55.286Z,56.60
2018-11-14T21:48:49.133Z,56.60
2018-11-14T21:51:43.381Z,56.70
2018-11-14T21:54:38.023Z,56.70
2018-11-14T21:57:31.706Z,56.70
2018-11-14T22:00:35.957Z,56.80
2018-11-14T22:03:29.908Z,56.60
2018-11-14T22:06:23.342Z,56.80
2018-11-14T22:09:16.959Z,56.70
2018-11-14T22:12:11.159Z,56.70
2018-11-14T22:15:04.853Z,56.80
2018-11-14T22:17:59.501Z,56.70
2018-11-14T22:20:53.406Z,56.80
2018-11-14T22:23:47.616Z,56.80
2018-11-14T22:26:40.942Z,56.70
2018-11-14T22:29:34.686Z,56.70
2018-11-14T22:32:28.897Z,56.60
2018-11-14T22:35:24.692Z,56.50
2018-11-14T22:38:18.782Z,56.50
2018-11-14T22:41:12.437Z,56.50
2018-11-14T22:44:05.969Z,56.50
2018-11-14T22:47:00.141Z,56.50
2018-11-14T22:49:54.387Z,56.60
2018-11-14T22:52:48.431Z,56.80
2018-11-14T22:55:42.195Z,56.80
2018-11-14T22:58:35.881Z,56.80
2018-11-14T23:01:29.760Z,56.90
2018-11-14T23:04:23.483Z,56.90
2018-11-14T23:07:17.587Z,56.80
2018-11-14T23:10:11.283Z,56.90
2018-11-14T23:13:04.781Z,57.00
2018-11-14T23:15:58.644Z,56.80
2018-11-14T23:18:52.703Z,56.80
2018-11-14T23:21:46.505Z,56.80
2018-11-14T23:24:40.529Z,56.90
2018-11-14T23:27:34.049Z,56.80
2018-11-14T23:30:28.638Z,56.80
2018-11-14T23:33:22.829Z,56.80
2018-11-14T23:36:16.650Z,56.70
2018-11-14T23:39:14.741Z,56.70
2018-11-14T23:42:08.624Z,56.80
2018-11-14T23:45:02.319Z,56.80
2018-11-14T23:47:59.165Z,56.70
2018-11-14T23:50:52.749Z,56.70
2018-11-14T23:53:46.429Z,56.70
2018-11-14T23:56:40.538Z,56.60
2018-11-14T23:59:34.424Z,56.50
